sensor_id;sensor_type;location;lat;lon;timestamp;pressure;altitude;pressure_sealevel;temperature
18161;BMP280;9205;52.032;4.314;2023-08-06T00:00:53;100352.00;;;17.45
18161;BMP280;9205;52.032;4.314;2023-08-06T00:03:20;100357.19;;;17.44
18161;BMP280;9205;52.032;4.314;2023-08-06T00:05:48;100350.25;;;17.46
18161;BMP280;9205;52.032;4.314;2023-08-06T00:08:15;100351.16;;;17.45
18161;BMP280;9205;52.032;4.314;2023-08-06T00:10:42;100352.81;;;17.46
18161;BMP280;9205;52.032;4.314;2023-08-06T00:13:09;100356.13;;;17.48
18161;BMP280;9205;52.032;4.314;2023-08-06T00:15:38;100356.13;;;17.48
18161;BMP280;9205;52.032;4.314;2023-08-06T00:18:05;100357.69;;;17.50
18161;BMP280;9205;52.032;4.314;2023-08-06T00:20:32;100359.25;;;17.53
18161;BMP280;9205;52.032;4.314;2023-08-06T00:23:00;100349.88;;;17.52
18161;BMP280;9205;52.032;4.314;2023-08-06T00:25:28;100343.28;;;17.48
18161;BMP280;9205;52.032;4.314;2023-08-06T00:27:55;100351.06;;;17.46
18161;BMP280;9205;52.032;4.314;2023-08-06T00:30:22;100355.28;;;17.47
18161;BMP280;9205;52.032;4.314;2023-08-06T00:32:51;100350.16;;;17.47
18161;BMP280;9205;52.032;4.314;2023-08-06T00:35:19;100353.56;;;17.48
18161;BMP280;9205;52.032;4.314;2023-08-06T00:37:47;100356.84;;;17.50
18161;BMP280;9205;52.032;4.314;2023-08-06T00:40:14;100352.44;;;17.52
18161;BMP280;9205;52.032;4.314;2023-08-06T00:42:41;100354.09;;;17.53
18161;BMP280;9205;52.032;4.314;2023-08-06T00:45:11;100356.69;;;17.53
18161;BMP280;9205;52.032;4.314;2023-08-06T00:47:38;100354.28;;;17.50
18161;BMP280;9205;52.032;4.314;2023-08-06T00:50:09;100355.88;;;17.52
18161;BMP280;9205;52.032;4.314;2023-08-06T00:52:36;100360.00;;;17.55
18161;BMP280;9205;52.032;4.314;2023-08-06T00:55:06;100358.34;;;17.54
18161;BMP280;9205;52.032;4.314;2023-08-06T00:57:34;100358.25;;;17.55
18161;BMP280;9205;52.032;4.314;2023-08-06T01:00:03;100354.84;;;17.55
18161;BMP280;9205;52.032;4.314;2023-08-06T01:02:31;100365.03;;;17.56
18161;BMP280;9205;52.032;4.314;2023-08-06T01:04:58;100358.19;;;17.57
18161;BMP280;9205;52.032;4.314;2023-08-06T01:07:45;100359.81;;;17.58
18161;BMP280;9205;52.032;4.314;2023-08-06T01:10:39;100367.59;;;17.56
18161;BMP280;9205;52.032;4.314;2023-08-06T01:13:17;100361.66;;;17.56
18161;BMP280;9205;52.032;4.314;2023-08-06T01:15:49;100366.78;;;17.56
18161;BMP280;9205;52.032;4.314;2023-08-06T01:18:18;100366.69;;;17.57
18161;BMP280;9205;52.032;4.314;2023-08-06T01:20:47;100374.31;;;17.59
18161;BMP280;9205;52.032;4.314;2023-08-06T01:23:15;100367.50;;;17.58
18161;BMP280;9205;52.032;4.314;2023-08-06T01:25:55;100376.16;;;17.57
18161;BMP280;9205;52.032;4.314;2023-08-06T01:28:33;100373.75;;;17.54
18161;BMP280;9205;52.032;4.314;2023-08-06T01:31:05;100378.97;;;17.52
18161;BMP280;9205;52.032;4.314;2023-08-06T01:33:38;100384.94;;;17.53
18161;BMP280;9205;52.032;4.314;2023-08-06T01:36:11;100377.97;;;17.55
18161;BMP280;9205;52.032;4.314;2023-08-06T01:38:38;100380.44;;;17.56
18161;BMP280;9205;52.032;4.314;2023-08-06T01:41:05;100381.34;;;17.55
18161;BMP280;9205;52.032;4.314;2023-08-06T01:43:32;100378.06;;;17.53
18161;BMP280;9205;52.032;4.314;2023-08-06T01:45:59;100381.72;;;17.49
18161;BMP280;9205;52.032;4.314;2023-08-06T01:48:26;100383.53;;;17.47
18161;BMP280;9205;52.032;4.314;2023-08-06T01:50:54;100386.09;;;17.47
18161;BMP280;9205;52.032;4.314;2023-08-06T01:53:22;100392.78;;;17.50
18161;BMP280;9205;52.032;4.314;2023-08-06T01:55:51;100390.50;;;17.45
18161;BMP280;9205;52.032;4.314;2023-08-06T01:58:19;100391.47;;;17.43
18161;BMP280;9205;52.032;4.314;2023-08-06T02:00:46;100389.75;;;17.43
18161;BMP280;9205;52.032;4.314;2023-08-06T02:03:13;100396.56;;;17.44
18161;BMP280;9205;52.032;4.314;2023-08-06T02:05:40;100410.19;;;17.45
18161;BMP280;9205;52.032;4.314;2023-08-06T02:08:08;100400.78;;;17.45
18161;BMP280;9205;52.032;4.314;2023-08-06T02:10:37;100408.53;;;17.44
18161;BMP280;9205;52.032;4.314;2023-08-06T02:13:04;100413.03;;;17.40
18161;BMP280;9205;52.032;4.314;2023-08-06T02:15:31;100403.00;;;17.36
18161;BMP280;9205;52.032;4.314;2023-08-06T02:17:58;100408.34;;;17.33
18161;BMP280;9205;52.032;4.314;2023-08-06T02:20:26;100418.00;;;17.28
18161;BMP280;9205;52.032;4.314;2023-08-06T02:22:54;100424.94;;;17.26
18161;BMP280;9205;52.032;4.314;2023-08-06T02:25:21;100419.66;;;17.29
18161;BMP280;9205;52.032;4.314;2023-08-06T02:27:50;100424.78;;;17.29
18161;BMP280;9205;52.032;4.314;2023-08-06T02:30:17;100425.69;;;17.28
18161;BMP280;9205;52.032;4.314;2023-08-06T02:32:44;100421.41;;;17.28
18161;BMP280;9205;52.032;4.314;2023-08-06T02:35:12;100424.19;;;17.24
18161;BMP280;9205;52.032;4.314;2023-08-06T02:37:39;100425.09;;;17.23
18161;BMP280;9205;52.032;4.314;2023-08-06T02:40:07;100420.22;;;17.19
18161;BMP280;9205;52.032;4.314;2023-08-06T02:42:35;100421.22;;;17.16
18161;BMP280;9205;52.032;4.314;2023-08-06T02:45:06;100422.22;;;17.14
18161;BMP280;9205;52.032;4.314;2023-08-06T02:47:34;100419.16;;;17.07
18161;BMP280;9205;52.032;4.314;2023-08-06T02:50:01;100416.81;;;17.03
18161;BMP280;9205;52.032;4.314;2023-08-06T02:52:30;100430.81;;;16.97
18161;BMP280;9205;52.032;4.314;2023-08-06T02:54:57;100424.09;;;16.95
18161;BMP280;9205;52.032;4.314;2023-08-06T02:57:27;100426.75;;;16.93
18161;BMP280;9205;52.032;4.314;2023-08-06T02:59:54;100422.38;;;16.95
18161;BMP280;9205;52.032;4.314;2023-08-06T03:02:24;100422.28;;;16.97
18161;BMP280;9205;52.032;4.314;2023-08-06T03:05:00;100429.09;;;16.98
18161;BMP280;9205;52.032;4.314;2023-08-06T03:07:32;100434.38;;;16.95
18161;BMP280;9205;52.032;4.314;2023-08-06T03:10:09;100429.56;;;16.89
18161;BMP280;9205;52.032;4.314;2023-08-06T03:12:36;100437.41;;;16.86
18161;BMP280;9205;52.032;4.314;2023-08-06T03:15:06;100447.09;;;16.81
18161;BMP280;9205;52.032;4.314;2023-08-06T03:17:35;100444.44;;;16.82
18161;BMP280;9205;52.032;4.314;2023-08-06T03:20:06;100444.44;;;16.82
18161;BMP280;9205;52.032;4.314;2023-08-06T03:22:34;100447.34;;;16.76
18161;BMP280;9205;52.032;4.314;2023-08-06T03:25:03;100449.56;;;16.67
18161;BMP280;9205;52.032;4.314;2023-08-06T03:27:35;100455.41;;;16.53
18161;BMP280;9205;52.032;4.314;2023-08-06T03:30:03;100474.66;;;16.45
18161;BMP280;9205;52.032;4.314;2023-08-06T03:32:31;100466.00;;;16.31
18161;BMP280;9205;52.032;4.314;2023-08-06T03:35:00;100474.28;;;16.19
18161;BMP280;9205;52.032;4.314;2023-08-06T03:37:29;100475.22;;;16.16
18161;BMP280;9205;52.032;4.314;2023-08-06T03:39:57;100480.44;;;16.15
18161;BMP280;9205;52.032;4.314;2023-08-06T03:42:24;100472.00;;;16.13
18161;BMP280;9205;52.032;4.314;2023-08-06T03:44:51;100471.69;;;16.02
18161;BMP280;9205;52.032;4.314;2023-08-06T03:47:18;100480.88;;;15.89
18161;BMP280;9205;52.032;4.314;2023-08-06T03:49:49;100485.53;;;15.81
18161;BMP280;9205;52.032;4.314;2023-08-06T03:52:18;100482.22;;;15.79
18161;BMP280;9205;52.032;4.314;2023-08-06T03:54:46;100484.84;;;15.77
18161;BMP280;9205;52.032;4.314;2023-08-06T03:57:14;100491.78;;;15.75
18161;BMP280;9205;52.032;4.314;2023-08-06T03:59:41;100482.38;;;15.76
18161;BMP280;9205;52.032;4.314;2023-08-06T04:02:08;100477.72;;;15.84
18161;BMP280;9205;52.032;4.314;2023-08-06T04:04:36;100483.72;;;15.83
18161;BMP280;9205;52.032;4.314;2023-08-06T04:07:04;100478.91;;;15.77
18161;BMP280;9205;52.032;4.314;2023-08-06T04:09:32;100487.34;;;15.79
18161;BMP280;9205;52.032;4.314;2023-08-06T04:12:00;100477.72;;;15.84
18161;BMP280;9205;52.032;4.314;2023-08-06T04:14:30;100483.59;;;15.86
18161;BMP280;9205;52.032;4.314;2023-08-06T04:16:57;100481.84;;;15.86
18161;BMP280;9205;52.032;4.314;2023-08-06T04:19:24;100491.88;;;15.91
18161;BMP280;9205;52.032;4.314;2023-08-06T04:21:51;100498.53;;;15.95
18161;BMP280;9205;52.032;4.314;2023-08-06T04:24:18;100491.75;;;15.94
18161;BMP280;9205;52.032;4.314;2023-08-06T04:26:47;100498.34;;;15.98
18161;BMP280;9205;52.032;4.314;2023-08-06T04:29:14;100498.53;;;15.95
18161;BMP280;9205;52.032;4.314;2023-08-06T04:31:41;100494.31;;;15.94
18161;BMP280;9205;52.032;4.314;2023-08-06T04:34:09;100503.78;;;15.92
18161;BMP280;9205;52.032;4.314;2023-08-06T04:36:37;100515.53;;;15.96
18161;BMP280;9205;52.032;4.314;2023-08-06T04:39:07;100522.31;;;15.97
18161;BMP280;9205;52.032;4.314;2023-08-06T04:41:35;100517.06;;;16.00
18161;BMP280;9205;52.032;4.314;2023-08-06T04:44:03;100521.28;;;16.01
18161;BMP280;9205;52.032;4.314;2023-08-06T04:46:31;100536.47;;;16.04
18161;BMP280;9205;52.032;4.314;2023-08-06T04:48:58;100521.19;;;16.02
18161;BMP280;9205;52.032;4.314;2023-08-06T04:51:25;100529.84;;;16.00
18161;BMP280;9205;52.032;4.314;2023-08-06T04:53:52;100530.00;;;15.97
18161;BMP280;9205;52.032;4.314;2023-08-06T04:56:19;100527.31;;;16.00
18161;BMP280;9205;52.032;4.314;2023-08-06T04:58:47;100518.84;;;15.98
18161;BMP280;9205;52.032;4.314;2023-08-06T05:01:15;100531.81;;;15.95
18161;BMP280;9205;52.032;4.314;2023-08-06T05:03:42;100530.91;;;15.96
18161;BMP280;9205;52.032;4.314;2023-08-06T05:06:10;100534.22;;;15.98
18161;BMP280;9205;52.032;4.314;2023-08-06T05:08:37;100537.69;;;15.97
18161;BMP280;9205;52.032;4.314;2023-08-06T05:11:04;100546.13;;;15.99
18161;BMP280;9205;52.032;4.314;2023-08-06T05:13:31;100552.09;;;15.99
18161;BMP280;9205;52.032;4.314;2023-08-06T05:15:58;100553.22;;;15.94
18161;BMP280;9205;52.032;4.314;2023-08-06T05:18:27;100556.69;;;15.93
18161;BMP280;9205;52.032;4.314;2023-08-06T05:20:54;100558.34;;;15.94
18161;BMP280;9205;52.032;4.314;2023-08-06T05:23:22;100564.28;;;15.94
18161;BMP280;9205;52.032;4.314;2023-08-06T05:25:49;100562.41;;;15.98
18161;BMP280;9205;52.032;4.314;2023-08-06T05:28:16;100565.72;;;16.00
18161;BMP280;9205;52.032;4.314;2023-08-06T05:30:43;100571.63;;;16.02
18161;BMP280;9205;52.032;4.314;2023-08-06T05:33:10;100574.19;;;16.02
18161;BMP280;9205;52.032;4.314;2023-08-06T05:35:40;100580.03;;;16.04
18161;BMP280;9205;52.032;4.314;2023-08-06T05:38:08;100581.56;;;16.08
18161;BMP280;9205;52.032;4.314;2023-08-06T05:40:35;100585.78;;;16.09
18161;BMP280;9205;52.032;4.314;2023-08-06T05:43:02;100588.34;;;16.09
18161;BMP280;9205;52.032;4.314;2023-08-06T05:45:29;100598.91;;;16.03
18161;BMP280;9205;52.032;4.314;2023-08-06T05:47:57;100588.91;;;15.97
18161;BMP280;9205;52.032;4.314;2023-08-06T05:50:24;100600.81;;;15.98
18161;BMP280;9205;52.032;4.314;2023-08-06T05:52:53;100605.06;;;15.99
18161;BMP280;9205;52.032;4.314;2023-08-06T05:55:20;100604.38;;;15.95
18161;BMP280;9205;52.032;4.314;2023-08-06T05:57:47;100599.16;;;15.97
18161;BMP280;9205;52.032;4.314;2023-08-06T06:00:15;100600.06;;;15.96
18161;BMP280;9205;52.032;4.314;2023-08-06T06:02:46;100600.13;;;15.94
18161;BMP280;9205;52.032;4.314;2023-08-06T06:05:13;100604.44;;;15.94
18161;BMP280;9205;52.032;4.314;2023-08-06T06:07:40;100609.56;;;15.94
18161;BMP280;9205;52.032;4.314;2023-08-06T06:10:09;100608.66;;;15.95
18161;BMP280;9205;52.032;4.314;2023-08-06T06:12:42;100618.16;;;15.93
18161;BMP280;9205;52.032;4.314;2023-08-06T06:15:16;100616.19;;;15.98
18161;BMP280;9205;52.032;4.314;2023-08-06T06:17:43;100626.31;;;16.01
18161;BMP280;9205;52.032;4.314;2023-08-06T06:20:11;100627.13;;;16.01
18161;BMP280;9205;52.032;4.314;2023-08-06T06:22:38;100626.31;;;16.01
18161;BMP280;9205;52.032;4.314;2023-08-06T06:25:06;100626.31;;;16.01
18161;BMP280;9205;52.032;4.314;2023-08-06T06:27:35;100630.53;;;16.02
18161;BMP280;9205;52.032;4.314;2023-08-06T06:30:03;100638.00;;;16.06
18161;BMP280;9205;52.032;4.314;2023-08-06T06:32:30;100622.56;;;16.08
18161;BMP280;9205;52.032;4.314;2023-08-06T06:34:58;100634.31;;;16.12
18161;BMP280;9205;52.032;4.314;2023-08-06T06:37:25;100636.06;;;16.11
18161;BMP280;9205;52.032;4.314;2023-08-06T06:39:52;100634.31;;;16.12
18161;BMP280;9205;52.032;4.314;2023-08-06T06:42:20;100639.31;;;16.15
18161;BMP280;9205;52.032;4.314;2023-08-06T06:44:52;100637.56;;;16.15
18161;BMP280;9205;52.032;4.314;2023-08-06T06:47:19;100647.00;;;16.15
18161;BMP280;9205;52.032;4.314;2023-08-06T06:49:46;100642.00;;;16.12
18161;BMP280;9205;52.032;4.314;2023-08-06T06:52:14;100646.38;;;16.10
18161;BMP280;9205;52.032;4.314;2023-08-06T06:54:41;100659.94;;;16.12
18161;BMP280;9205;52.032;4.314;2023-08-06T06:57:09;100654.47;;;16.19
18161;BMP280;9205;52.032;4.314;2023-08-06T06:59:36;100653.41;;;16.23
18161;BMP280;9205;52.032;4.314;2023-08-06T07:02:05;100658.31;;;16.28
18161;BMP280;9205;52.032;4.314;2023-08-06T07:04:33;100654.84;;;16.30
18161;BMP280;9205;52.032;4.314;2023-08-06T07:07:00;100654.84;;;16.30
18161;BMP280;9205;52.032;4.314;2023-08-06T07:09:27;100658.00;;;16.35
18161;BMP280;9205;52.032;4.314;2023-08-06T07:11:54;100653.44;;;16.42
18161;BMP280;9205;52.032;4.314;2023-08-06T07:14:22;100662.63;;;16.46
18161;BMP280;9205;52.032;4.314;2023-08-06T07:16:50;100660.94;;;16.45
18161;BMP280;9205;52.032;4.314;2023-08-06T07:19:18;100662.47;;;16.48
18161;BMP280;9205;52.032;4.314;2023-08-06T07:21:45;100667.22;;;16.56
18161;BMP280;9205;52.032;4.314;2023-08-06T07:24:13;100672.22;;;16.59
18161;BMP280;9205;52.032;4.314;2023-08-06T07:26:40;100671.09;;;16.64
18161;BMP280;9205;52.032;4.314;2023-08-06T07:29:07;100677.59;;;16.71
18161;BMP280;9205;52.032;4.314;2023-08-06T07:31:34;100677.28;;;16.77
18161;BMP280;9205;52.032;4.314;2023-08-06T07:34:02;100678.78;;;16.81
18161;BMP280;9205;52.032;4.314;2023-08-06T07:36:30;100672.69;;;16.84
18161;BMP280;9205;52.032;4.314;2023-08-06T07:38:58;100674.19;;;16.88
18161;BMP280;9205;52.032;4.314;2023-08-06T07:41:25;100678.19;;;16.93
18161;BMP280;9205;52.032;4.314;2023-08-06T07:43:52;100685.56;;;16.99
18161;BMP280;9205;52.032;4.314;2023-08-06T07:46:19;100681.88;;;17.05
18161;BMP280;9205;52.032;4.314;2023-08-06T07:48:47;100685.88;;;17.10
18161;BMP280;9205;52.032;4.314;2023-08-06T07:51:14;100682.03;;;17.19
18161;BMP280;9205;52.032;4.314;2023-08-06T07:53:42;100673.94;;;17.26
18161;BMP280;9205;52.032;4.314;2023-08-06T07:56:09;100678.03;;;17.30
18161;BMP280;9205;52.032;4.314;2023-08-06T07:58:37;100686.41;;;17.33
18161;BMP280;9205;52.032;4.314;2023-08-06T08:01:05;100678.56;;;17.36
18161;BMP280;9205;52.032;4.314;2023-08-06T08:03:33;100685.50;;;17.34
18161;BMP280;9205;52.032;4.314;2023-08-06T08:06:00;100681.19;;;17.35
18161;BMP280;9205;52.032;4.314;2023-08-06T08:08:27;100678.16;;;17.44
18161;BMP280;9205;52.032;4.314;2023-08-06T08:10:56;100684.38;;;17.55
18161;BMP280;9205;52.032;4.314;2023-08-06T08:13:25;100689.72;;;17.68
18161;BMP280;9205;52.032;4.314;2023-08-06T08:15:57;100676.41;;;17.77
18161;BMP280;9205;52.032;4.314;2023-08-06T08:18:28;100681.28;;;17.81
18161;BMP280;9205;52.032;4.314;2023-08-06T08:20:57;100684.44;;;17.86
18161;BMP280;9205;52.032;4.314;2023-08-06T08:23:24;100685.44;;;17.84
18161;BMP280;9205;52.032;4.314;2023-08-06T08:25:51;100685.44;;;17.84
18161;BMP280;9205;52.032;4.314;2023-08-06T08:28:21;100692.22;;;17.85
18161;BMP280;9205;52.032;4.314;2023-08-06T08:30:48;100696.78;;;17.80
18161;BMP280;9205;52.032;4.314;2023-08-06T08:33:15;100689.34;;;17.75
18161;BMP280;9205;52.032;4.314;2023-08-06T08:35:42;100698.03;;;17.73
18161;BMP280;9205;52.032;4.314;2023-08-06T08:38:09;100707.38;;;17.74
18161;BMP280;9205;52.032;4.314;2023-08-06T08:40:45;100704.50;;;17.80
18161;BMP280;9205;52.032;4.314;2023-08-06T08:43:14;100714.78;;;17.80
18161;BMP280;9205;52.032;4.314;2023-08-06T08:45:46;100711.03;;;17.85
18161;BMP280;9205;52.032;4.314;2023-08-06T08:48:17;100714.59;;;17.83
18161;BMP280;9205;52.032;4.314;2023-08-06T08:50:48;100710.38;;;17.82
18161;BMP280;9205;52.032;4.314;2023-08-06T08:53:17;100718.59;;;17.73
18161;BMP280;9205;52.032;4.314;2023-08-06T08:55:46;100718.81;;;17.68
18161;BMP280;9205;52.032;4.314;2023-08-06T08:58:14;100720.53;;;17.68
18161;BMP280;9205;52.032;4.314;2023-08-06T09:00:45;100721.16;;;17.73
18161;BMP280;9205;52.032;4.314;2023-08-06T09:03:13;100721.16;;;17.73
18161;BMP280;9205;52.032;4.314;2023-08-06T09:05:44;100723.41;;;17.79
18161;BMP280;9205;52.032;4.314;2023-08-06T09:08:17;100720.50;;;17.85
18161;BMP280;9205;52.032;4.314;2023-08-06T09:10:48;100728.63;;;17.93
18161;BMP280;9205;52.032;4.314;2023-08-06T09:13:16;100726.59;;;17.99
18161;BMP280;9205;52.032;4.314;2023-08-06T09:15:45;100726.06;;;18.08
18161;BMP280;9205;52.032;4.314;2023-08-06T09:18:12;100722.28;;;18.15
18161;BMP280;9205;52.032;4.314;2023-08-06T09:20:40;100729.81;;;18.18
18161;BMP280;9205;52.032;4.314;2023-08-06T09:23:08;100735.03;;;18.16
18161;BMP280;9205;52.032;4.314;2023-08-06T09:25:39;100739.44;;;18.14
18161;BMP280;9205;52.032;4.314;2023-08-06T09:28:07;100740.19;;;18.16
18161;BMP280;9205;52.032;4.314;2023-08-06T09:30:36;100738.97;;;18.23
18161;BMP280;9205;52.032;4.314;2023-08-06T09:33:09;100742.72;;;18.33
18161;BMP280;9205;52.032;4.314;2023-08-06T09:35:37;100742.47;;;18.38
18161;BMP280;9205;52.032;4.314;2023-08-06T09:38:09;100743.38;;;18.37
18161;BMP280;9205;52.032;4.314;2023-08-06T09:40:38;100749.00;;;18.43
18161;BMP280;9205;52.032;4.314;2023-08-06T09:43:06;100750.31;;;18.50
18161;BMP280;9205;52.032;4.314;2023-08-06T09:45:36;100755.88;;;18.58
18161;BMP280;9205;52.032;4.314;2023-08-06T09:48:07;100755.88;;;18.58
18161;BMP280;9205;52.032;4.314;2023-08-06T09:50:36;100756.47;;;18.63
18161;BMP280;9205;52.032;4.314;2023-08-06T09:53:05;100759.44;;;18.71
18161;BMP280;9205;52.032;4.314;2023-08-06T09:55:34;100764.41;;;18.74
18161;BMP280;9205;52.032;4.314;2023-08-06T09:58:01;100768.47;;;18.78
18161;BMP280;9205;52.032;4.314;2023-08-06T10:00:30;100776.59;;;18.86
18161;BMP280;9205;52.032;4.314;2023-08-06T10:03:00;100777.16;;;18.91
18161;BMP280;9205;52.032;4.314;2023-08-06T10:05:31;100782.22;;;18.92
18161;BMP280;9205;52.032;4.314;2023-08-06T10:08:01;100785.63;;;18.93
18161;BMP280;9205;52.032;4.314;2023-08-06T10:10:30;100781.78;;;19.00
18161;BMP280;9205;52.032;4.314;2023-08-06T10:12:59;100789.91;;;19.08
18161;BMP280;9205;52.032;4.314;2023-08-06T10:15:31;100795.34;;;19.19
18161;BMP280;9205;52.032;4.314;2023-08-06T10:18:00;100794.38;;;19.20
18161;BMP280;9205;52.032;4.314;2023-08-06T10:20:35;100795.88;;;19.24
18161;BMP280;9205;52.032;4.314;2023-08-06T10:23:03;100802.06;;;19.35
18161;BMP280;9205;52.032;4.314;2023-08-06T10:25:32;100795.09;;;19.37
18161;BMP280;9205;52.032;4.314;2023-08-06T10:28:01;100792.84;;;19.31
18161;BMP280;9205;52.032;4.314;2023-08-06T10:30:34;100781.38;;;19.37
18161;BMP280;9205;52.032;4.314;2023-08-06T10:33:08;100796.56;;;19.41
18161;BMP280;9205;52.032;4.314;2023-08-06T10:35:39;100793.69;;;19.32
18161;BMP280;9205;52.032;4.314;2023-08-06T10:38:11;100792.19;;;19.28
18161;BMP280;9205;52.032;4.314;2023-08-06T10:40:41;100785.41;;;19.27
18161;BMP280;9205;52.032;4.314;2023-08-06T10:43:25;100789.31;;;19.34
18161;BMP280;9205;52.032;4.314;2023-08-06T10:45:52;100792.31;;;19.40
18161;BMP280;9205;52.032;4.314;2023-08-06T10:48:30;100798.50;;;19.52
18161;BMP280;9205;52.032;4.314;2023-08-06T10:51:00;100804.41;;;19.54
18161;BMP280;9205;52.032;4.314;2023-08-06T10:53:28;100798.91;;;19.60
18161;BMP280;9205;52.032;4.314;2023-08-06T10:55:55;100805.78;;;19.45
18161;BMP280;9205;52.032;4.314;2023-08-06T10:58:23;100800.81;;;19.42
18161;BMP280;9205;52.032;4.314;2023-08-06T11:00:50;100808.16;;;19.48
18161;BMP280;9205;52.032;4.314;2023-08-06T11:03:18;100797.34;;;19.57
18161;BMP280;9205;52.032;4.314;2023-08-06T11:05:49;100802.78;;;19.66
18161;BMP280;9205;52.032;4.314;2023-08-06T11:08:25;100807.22;;;19.78
18161;BMP280;9205;52.032;4.314;2023-08-06T11:10:53;100808.34;;;20.16
18161;BMP280;9205;52.032;4.314;2023-08-06T11:13:20;100808.97;;;20.34
18161;BMP280;9205;52.032;4.314;2023-08-06T11:15:48;100812.97;;;20.11
18161;BMP280;9205;52.032;4.314;2023-08-06T11:18:15;100826.28;;;19.90
18161;BMP280;9205;52.032;4.314;2023-08-06T11:20:42;100829.66;;;19.63
18161;BMP280;9205;52.032;4.314;2023-08-06T11:23:10;100827.75;;;19.37
18161;BMP280;9205;52.032;4.314;2023-08-06T11:25:44;100830.78;;;19.14
18161;BMP280;9205;52.032;4.314;2023-08-06T11:28:12;100828.53;;;18.92
18161;BMP280;9205;52.032;4.314;2023-08-06T11:30:39;100826.41;;;18.85
18161;BMP280;9205;52.032;4.314;2023-08-06T11:33:07;100817.78;;;18.86
18161;BMP280;9205;52.032;4.314;2023-08-06T11:35:36;100823.88;;;18.99
18161;BMP280;9205;52.032;4.314;2023-08-06T11:38:03;100821.06;;;19.19
18161;BMP280;9205;52.032;4.314;2023-08-06T11:40:32;100817.91;;;19.43
18161;BMP280;9205;52.032;4.314;2023-08-06T11:43:00;100825.38;;;19.48
18161;BMP280;9205;52.032;4.314;2023-08-06T11:45:28;100829.78;;;19.46
18161;BMP280;9205;52.032;4.314;2023-08-06T11:47:55;100826.81;;;19.38
18161;BMP280;9205;52.032;4.314;2023-08-06T11:50:23;100820.38;;;19.31
18161;BMP280;9205;52.032;4.314;2023-08-06T11:52:54;100818.66;;;19.16
18161;BMP280;9205;52.032;4.314;2023-08-06T11:55:24;100825.97;;;19.08
18161;BMP280;9205;52.032;4.314;2023-08-06T11:57:52;100830.63;;;19.17
18161;BMP280;9205;52.032;4.314;2023-08-06T12:00:24;100832.09;;;19.21
18161;BMP280;9205;52.032;4.314;2023-08-06T12:02:53;100828.84;;;19.33
18161;BMP280;9205;52.032;4.314;2023-08-06T12:05:22;100837.03;;;19.39
18161;BMP280;9205;52.032;4.314;2023-08-06T12:07:56;100831.81;;;19.41
18161;BMP280;9205;52.032;4.314;2023-08-06T12:10:27;100828.50;;;19.39
18161;BMP280;9205;52.032;4.314;2023-08-06T12:12:54;100841.00;;;19.45
18161;BMP280;9205;52.032;4.314;2023-08-06T12:15:23;100837.38;;;19.63
18161;BMP280;9205;52.032;4.314;2023-08-06T12:17:50;100850.28;;;19.90
18161;BMP280;9205;52.032;4.314;2023-08-06T12:20:24;100843.63;;;20.16
18161;BMP280;9205;52.032;4.314;2023-08-06T12:22:58;100854.75;;;20.30
18161;BMP280;9205;52.032;4.314;2023-08-06T12:25:25;100850.53;;;20.29
18161;BMP280;9205;52.032;4.314;2023-08-06T12:27:53;100852.94;;;20.18
18161;BMP280;9205;52.032;4.314;2023-08-06T12:30:20;100861.97;;;20.11
18161;BMP280;9205;52.032;4.314;2023-08-06T12:32:48;100864.53;;;20.25
18161;BMP280;9205;52.032;4.314;2023-08-06T12:35:17;100867.38;;;20.48
18161;BMP280;9205;52.032;4.314;2023-08-06T12:37:45;100872.97;;;20.69
18161;BMP280;9205;52.032;4.314;2023-08-06T12:40:13;100872.59;;;20.61
18161;BMP280;9205;52.032;4.314;2023-08-06T12:42:40;100865.06;;;20.58
18161;BMP280;9205;52.032;4.314;2023-08-06T12:45:08;100870.00;;;20.75
18161;BMP280;9205;52.032;4.314;2023-08-06T12:47:35;100865.84;;;20.86
18161;BMP280;9205;52.032;4.314;2023-08-06T12:50:06;100861.88;;;20.95
18161;BMP280;9205;52.032;4.314;2023-08-06T12:52:33;100887.13;;;20.90
18161;BMP280;9205;52.032;4.314;2023-08-06T12:55:00;100875.72;;;20.94
18161;BMP280;9205;52.032;4.314;2023-08-06T12:57:27;100890.41;;;20.79
18161;BMP280;9205;52.032;4.314;2023-08-06T12:59:55;100889.09;;;20.58
18161;BMP280;9205;52.032;4.314;2023-08-06T13:02:22;100893.81;;;20.52
18161;BMP280;9205;52.032;4.314;2023-08-06T13:04:49;100890.03;;;20.57
18161;BMP280;9205;52.032;4.314;2023-08-06T13:07:18;100902.00;;;20.58
18161;BMP280;9205;52.032;4.314;2023-08-06T13:09:45;100907.25;;;20.43
18161;BMP280;9205;52.032;4.314;2023-08-06T13:12:13;100910.97;;;20.25
18161;BMP280;9205;52.032;4.314;2023-08-06T13:14:40;100926.59;;;20.08
18161;BMP280;9205;52.032;4.314;2023-08-06T13:17:07;100922.75;;;19.86
18161;BMP280;9205;52.032;4.314;2023-08-06T13:19:35;100938.88;;;19.60
18161;BMP280;9205;52.032;4.314;2023-08-06T13:22:04;100939.41;;;19.36
18161;BMP280;9205;52.032;4.314;2023-08-06T13:24:34;100952.31;;;19.20
18161;BMP280;9205;52.032;4.314;2023-08-06T13:27:01;100952.91;;;19.10
18161;BMP280;9205;52.032;4.314;2023-08-06T13:29:29;100952.94;;;18.93
18161;BMP280;9205;52.032;4.314;2023-08-06T13:31:56;100956.47;;;18.75
18161;BMP280;9205;52.032;4.314;2023-08-06T13:34:23;100971.91;;;18.60
18161;BMP280;9205;52.032;4.314;2023-08-06T13:36:51;100970.13;;;18.45
18161;BMP280;9205;52.032;4.314;2023-08-06T13:39:18;100986.00;;;18.36
18161;BMP280;9205;52.032;4.314;2023-08-06T13:41:47;100995.63;;;18.32
18161;BMP280;9205;52.032;4.314;2023-08-06T13:44:14;100981.34;;;18.27
18161;BMP280;9205;52.032;4.314;2023-08-06T13:46:42;100999.66;;;18.19
18161;BMP280;9205;52.032;4.314;2023-08-06T13:49:10;101012.31;;;18.07
18161;BMP280;9205;52.032;4.314;2023-08-06T13:51:38;101008.97;;;17.88
18161;BMP280;9205;52.032;4.314;2023-08-06T13:54:05;100999.34;;;17.75
18161;BMP280;9205;52.032;4.314;2023-08-06T13:59:02;101019.13;;;17.56
18161;BMP280;9205;52.032;4.314;2023-08-06T14:01:29;101034.53;;;17.56
18161;BMP280;9205;52.032;4.314;2023-08-06T14:03:57;101028.97;;;17.46
18161;BMP280;9205;52.032;4.314;2023-08-06T14:06:24;101031.69;;;17.43
18161;BMP280;9205;52.032;4.314;2023-08-06T14:08:51;101034.41;;;17.40
18161;BMP280;9205;52.032;4.314;2023-08-06T14:11:19;101039.25;;;17.46
18161;BMP280;9205;52.032;4.314;2023-08-06T14:13:46;101034.06;;;17.48
18161;BMP280;9205;52.032;4.314;2023-08-06T14:16:15;101039.03;;;17.51
18161;BMP280;9205;52.032;4.314;2023-08-06T14:18:42;101040.56;;;17.55